createdAt,value
2019-02-18T00:00:01.111Z,37.83
2019-02-18T00:00:33.123Z,37.74
2019-02-18T00:01:05.094Z,37.93
2019-02-18T00:01:37.239Z,37.83
2019-02-18T00:02:11.118Z,37.83
2019-02-18T00:02:43.097Z,37.74
2019-02-18T00:03:15.075Z,37.93
2019-02-18T00:03:47.040Z,37.93
2019-02-18T00:04:19.024Z,37.93
2019-02-18T00:04:51.009Z,37.83
2019-02-18T00:05:23.071Z,37.93
2019-02-18T00:05:55.279Z,37.81
2019-02-18T00:06:27.260Z,37.83
2019-02-18T00:06:59.331Z,37.93
2019-02-18T00:07:31.346Z,37.93
2019-02-18T00:08:03.510Z,37.93
2019-02-18T00:08:35.501Z,37.83
2019-02-18T00:09:07.510Z,37.83
2019-02-18T00:09:39.564Z,37.93
2019-02-18T00:10:11.550Z,37.93
2019-02-18T00:10:43.519Z,38.02
2019-02-18T00:11:15.485Z,37.54
2019-02-18T00:11:47.475Z,37.93
2019-02-18T00:12:19.445Z,37.93
2019-02-18T00:12:51.412Z,37.93
2019-02-18T00:13:23.399Z,37.83
2019-02-18T00:13:55.373Z,37.93
2019-02-18T00:14:27.364Z,37.93
2019-02-18T00:14:59.345Z,37.93
2019-02-18T00:15:31.530Z,37.93
2019-02-18T00:16:03.506Z,37.93
2019-02-18T00:16:35.496Z,38.02
2019-02-18T00:17:07.558Z,37.93
2019-02-18T00:17:39.539Z,37.64
2019-02-18T00:18:11.525Z,37.93
2019-02-18T00:18:43.508Z,37.93
2019-02-18T00:19:15.470Z,38.02
2019-02-18T00:19:47.508Z,37.83
2019-02-18T00:20:19.477Z,38.02
2019-02-18T00:20:51.462Z,37.83
2019-02-18T00:21:23.433Z,37.93
2019-02-18T00:21:55.419Z,37.45
2019-02-18T00:22:27.387Z,37.93
2019-02-18T00:22:59.390Z,37.93
2019-02-18T00:23:31.397Z,38.12
2019-02-18T00:24:03.398Z,38.02
2019-02-18T00:24:35.374Z,38.02
2019-02-18T00:25:07.347Z,38.02
2019-02-18T00:25:39.364Z,38.12
2019-02-18T00:26:11.346Z,38.12
2019-02-18T00:26:43.313Z,38.02
2019-02-18T00:27:15.277Z,38.02
2019-02-18T00:27:47.263Z,37.93
2019-02-18T00:28:19.217Z,38.02
2019-02-18T00:28:51.174Z,37.83
2019-02-18T00:29:23.161Z,38.02
2019-02-18T00:29:55.129Z,38.02
2019-02-18T00:30:27.158Z,38.22
2019-02-18T00:30:59.132Z,38.02
2019-02-18T00:31:31.118Z,38.02
2019-02-18T00:32:03.082Z,37.93
2019-02-18T00:32:35.082Z,38.12
2019-02-18T00:33:07.183Z,37.93
2019-02-18T00:33:39.176Z,38.22
2019-02-18T00:34:11.150Z,38.02
2019-02-18T00:34:43.136Z,37.74
2019-02-18T00:35:15.113Z,37.83
2019-02-18T00:35:47.085Z,37.93
2019-02-18T00:36:19.127Z,37.93
2019-02-18T00:36:51.094Z,37.93
2019-02-18T00:37:25.230Z,38.02
2019-02-18T00:37:57.212Z,38.12
2019-02-18T00:38:29.202Z,37.74
2019-02-18T00:39:01.193Z,38.02
2019-02-18T00:39:33.179Z,37.93
2019-02-18T00:40:05.147Z,37.93
2019-02-18T00:40:37.122Z,38.02
2019-02-18T00:41:09.140Z,37.93
2019-02-18T00:41:41.112Z,38.1
2019-02-18T00:42:13.100Z,38.01
2019-02-18T00:42:45.060Z,37.93
2019-02-18T00:43:17.020Z,37.93
2019-02-18T00:43:49.009Z,38.12
2019-02-18T00:44:21.084Z,37.93
2019-02-18T00:44:53.046Z,38.02
2019-02-18T00:45:25.007Z,38.02
2019-02-18T00:45:56.987Z,37.93
2019-02-18T00:46:28.967Z,38.02
2019-02-18T00:47:00.951Z,37.93
2019-02-18T00:47:32.940Z,37.93
2019-02-18T00:48:04.927Z,38.02
2019-02-18T00:48:36.887Z,38.02
2019-02-18T00:49:08.976Z,38.02
2019-02-18T00:49:40.939Z,38.02
2019-02-18T00:50:12.902Z,37.83
2019-02-18T00:50:44.912Z,38.22
2019-02-18T00:51:16.885Z,38.01
2019-02-18T00:51:48.849Z,38.02
2019-02-18T00:52:20.824Z,37.93
2019-02-18T00:52:52.794Z,38.02
2019-02-18T00:53:24.774Z,37.93
2019-02-18T00:53:56.748Z,37.74
2019-02-18T00:54:28.754Z,37.93
2019-02-18T00:55:00.831Z,37.93
2019-02-18T00:55:32.824Z,38.02
2019-02-18T00:56:04.788Z,37.64
2019-02-18T00:56:36.751Z,38.12
2019-02-18T00:57:08.723Z,37.93
2019-02-18T00:57:40.762Z,37.74
2019-02-18T00:58:12.730Z,37.74
2019-02-18T00:58:44.720Z,37.74
2019-02-18T00:59:16.688Z,37.64
2019-02-18T00:59:48.670Z,37.93
2019-02-18T01:00:20.642Z,37.93
2019-02-18T01:00:52.689Z,37.64
2019-02-18T01:01:24.654Z,37.74
2019-02-18T01:01:56.625Z,37.83
2019-02-18T01:02:28.598Z,37.74
2019-02-18T01:03:00.573Z,37.83
2019-02-18T01:03:32.550Z,37.83
2019-02-18T01:04:04.522Z,38.02
2019-02-18T01:04:36.517Z,37.74
2019-02-18T01:05:08.561Z,37.83
2019-02-18T01:05:40.538Z,37.83
2019-02-18T01:06:12.521Z,37.83
2019-02-18T01:06:44.524Z,37.74
2019-02-18T01:07:16.498Z,37.74
2019-02-18T01:07:48.536Z,37.74
2019-02-18T01:08:20.622Z,37.74
2019-02-18T01:08:52.685Z,37.74
2019-02-18T01:09:24.643Z,37.74
2019-02-18T01:09:56.647Z,37.74
2019-02-18T01:10:28.606Z,37.72
2019-02-18T01:11:00.712Z,37.93
2019-02-18T01:11:32.690Z,37.74
2019-02-18T01:12:04.708Z,37.83
2019-02-18T01:12:36.725Z,37.83
2019-02-18T01:13:08.747Z,37.74
2019-02-18T01:13:40.720Z,37.74
2019-02-18T01:14:12.889Z,37.74
2019-02-18T01:14:45.065Z,37.74
2019-02-18T01:15:17.063Z,37.74
2019-02-18T01:15:49.085Z,37.74
2019-02-18T01:16:21.074Z,37.83
2019-02-18T01:16:53.062Z,37.64
2019-02-18T01:17:25.058Z,37.74
2019-02-18T01:17:57.034Z,37.91
2019-02-18T01:18:29.325Z,37.83
2019-02-18T01:19:01.330Z,37.74
2019-02-18T01:19:33.552Z,37.74
2019-02-18T01:20:05.708Z,37.83
2019-02-18T01:20:37.730Z,38.02
2019-02-18T01:21:10.577Z,37.83
2019-02-18T01:21:42.580Z,37.64
2019-02-18T01:22:14.585Z,37.83
2019-02-18T01:22:46.561Z,37.74
2019-02-18T01:23:18.529Z,37.64
2019-02-18T01:23:50.494Z,37.64
2019-02-18T01:24:22.480Z,37.64
2019-02-18T01:24:54.459Z,37.83
2019-02-18T01:25:26.432Z,37.93
2019-02-18T01:25:58.421Z,37.64
2019-02-18T01:26:30.403Z,37.93
2019-02-18T01:27:02.419Z,37.64
2019-02-18T01:27:34.411Z,37.83
2019-02-18T01:28:06.376Z,37.54
2019-02-18T01:28:38.426Z,37.83
2019-02-18T01:29:10.423Z,37.64
2019-02-18T01:29:42.378Z,37.74
2019-02-18T01:30:14.367Z,37.93
2019-02-18T01:30:46.335Z,37.93
2019-02-18T01:31:18.322Z,37.83
2019-02-18T01:31:50.298Z,37.52
2019-02-18T01:32:22.279Z,37.74
2019-02-18T01:32:54.264Z,37.64
2019-02-18T01:33:26.243Z,37.64
2019-02-18T01:33:58.203Z,37.64
2019-02-18T01:34:30.177Z,37.64
2019-02-18T01:35:02.172Z,37.64
2019-02-18T01:35:34.154Z,37.74
2019-02-18T01:36:06.103Z,37.64
2019-02-18T01:36:38.147Z,37.83
2019-02-18T01:37:10.121Z,37.54
2019-02-18T01:37:46.487Z,37.62
2019-02-18T01:38:18.638Z,37.64
2019-02-18T01:38:50.609Z,37.54
2019-02-18T01:39:22.666Z,37.64
2019-02-18T01:39:54.728Z,37.74
2019-02-18T01:40:26.811Z,37.64
2019-02-18T01:40:58.780Z,37.64
2019-02-18T01:41:30.744Z,37.64
2019-02-18T01:42:02.719Z,37.64
2019-02-18T01:42:34.689Z,37.64
2019-02-18T01:43:06.676Z,37.83
2019-02-18T01:43:38.772Z,37.64
2019-02-18T01:44:10.824Z,37.64
2019-02-18T01:44:42.793Z,37.64
2019-02-18T01:45:14.752Z,37.64
2019-02-18T01:45:46.746Z,37.64
2019-02-18T01:46:18.716Z,37.64
2019-02-18T01:46:50.699Z,37.64
2019-02-18T01:47:22.695Z,37.64
2019-02-18T01:47:54.681Z,37.74
2019-02-18T01:48:26.655Z,37.54
2019-02-18T01:48:58.619Z,37.64
2019-02-18T01:49:30.598Z,37.64
2019-02-18T01:50:02.585Z,37.64
2019-02-18T01:50:34.995Z,37.64
2019-02-18T01:51:08.862Z,37.54
2019-02-18T01:51:40.870Z,37.45
2019-02-18T01:52:12.835Z,37.54
2019-02-18T01:52:44.846Z,37.54
2019-02-18T01:53:18.338Z,37.74
2019-02-18T01:53:50.345Z,37.64
2019-02-18T01:54:22.325Z,37.83
2019-02-18T01:54:54.304Z,37.64
2019-02-18T01:55:26.268Z,37.74
2019-02-18T01:55:58.238Z,37.83
2019-02-18T01:56:30.200Z,37.74
2019-02-18T01:57:02.262Z,37.54
2019-02-18T01:57:34.256Z,37.64
2019-02-18T01:58:06.232Z,37.64
2019-02-18T01:58:38.207Z,37.64
2019-02-18T01:59:10.175Z,37.64
2019-02-18T01:59:42.153Z,37.64
2019-02-18T02:00:14.128Z,37.54
2019-02-18T02:00:46.196Z,37.64
2019-02-18T02:01:18.372Z,37.74
2019-02-18T02:01:50.348Z,37.64
2019-02-18T02:02:22.322Z,37.74
2019-02-18T02:02:54.314Z,37.64
2019-02-18T02:03:26.295Z,38.02
2019-02-18T02:03:58.286Z,37.74
2019-02-18T02:04:30.467Z,37.54
2019-02-18T02:05:02.445Z,37.45
2019-02-18T02:05:34.435Z,37.74
2019-02-18T02:06:06.506Z,37.45
2019-02-18T02:06:38.485Z,37.45
2019-02-18T02:07:10.652Z,38.02
2019-02-18T02:07:42.693Z,37.45
2019-02-18T02:08:14.665Z,37.45
2019-02-18T02:08:46.637Z,37.54
2019-02-18T02:09:18.630Z,37.64
2019-02-18T02:09:50.586Z,37.64
2019-02-18T02:10:22.560Z,38.02
2019-02-18T02:10:54.522Z,37.54
2019-02-18T02:11:26.502Z,37.45
2019-02-18T02:11:58.479Z,37.45
2019-02-18T02:12:30.709Z,38.02
2019-02-18T02:13:02.734Z,37.45
2019-02-18T02:13:34.713Z,37.45
2019-02-18T02:14:06.717Z,37.35
2019-02-18T02:14:38.838Z,37.54
2019-02-18T02:15:10.886Z,37.54
2019-02-18T02:15:42.868Z,37.93
2019-02-18T02:16:14.848Z,37.45
2019-02-18T02:16:46.830Z,37.74
2019-02-18T02:17:18.909Z,37.74
2019-02-18T02:17:50.990Z,37.74
2019-02-18T02:18:23.048Z,37.93
2019-02-18T02:18:55.013Z,37.83
2019-02-18T02:19:26.984Z,37.45
2019-02-18T02:19:58.981Z,38.12
2019-02-18T02:20:31.139Z,38.02
2019-02-18T02:21:03.104Z,38.02
2019-02-18T02:21:35.089Z,37.54
2019-02-18T02:22:07.084Z,38.02
2019-02-18T02:22:39.129Z,37.83
2019-02-18T02:23:11.155Z,37.93
2019-02-18T02:23:43.130Z,37.45
2019-02-18T02:24:15.082Z,37.74
2019-02-18T02:24:47.059Z,37.93
2019-02-18T02:25:19.061Z,37.83
2019-02-18T02:25:51.049Z,37.45
2019-02-18T02:26:23.045Z,37.93
2019-02-18T02:26:55.017Z,37.64
2019-02-18T02:27:27.048Z,37.52
2019-02-18T02:27:59.049Z,37.83
2019-02-18T02:28:31.855Z,37.54
2019-02-18T02:29:04.134Z,37.83
2019-02-18T02:29:36.400Z,37.74
2019-02-18T02:30:08.419Z,37.54
2019-02-18T02:30:40.537Z,37.54
2019-02-18T02:31:12.553Z,37.74
2019-02-18T02:31:44.548Z,37.72
2019-02-18T02:32:16.565Z,37.74
2019-02-18T02:32:48.542Z,37.74
2019-02-18T02:33:20.522Z,37.64
2019-02-18T02:33:52.558Z,37.54
2019-02-18T02:34:24.534Z,37.54
2019-02-18T02:34:56.570Z,37.64
2019-02-18T02:35:28.564Z,37.64
2019-02-18T02:36:00.573Z,37.64
2019-02-18T02:36:32.546Z,37.54
2019-02-18T02:37:04.550Z,37.64
2019-02-18T02:37:36.555Z,37.54
2019-02-18T02:38:08.826Z,37.64
2019-02-18T02:38:40.854Z,37.35
2019-02-18T02:39:12.843Z,37.45
2019-02-18T02:39:44.826Z,37.64
2019-02-18T02:40:16.818Z,37.54
2019-02-18T02:40:48.789Z,37.64
2019-02-18T02:41:20.803Z,37.54
2019-02-18T02:41:52.793Z,37.64
2019-02-18T02:42:25.363Z,37.74
2019-02-18T02:42:57.364Z,37.54
2019-02-18T02:43:29.669Z,37.64
2019-02-18T02:44:01.859Z,37.74
2019-02-18T02:44:33.886Z,37.74
2019-02-18T02:45:06.099Z,37.35
2019-02-18T02:45:38.249Z,37.64
2019-02-18T02:46:10.308Z,37.26
2019-02-18T02:46:42.293Z,37.74
2019-02-18T02:47:14.542Z,37.54
2019-02-18T02:47:46.598Z,37.54
2019-02-18T02:48:18.966Z,37.64
2019-02-18T02:48:51.197Z,37.64
2019-02-18T02:49:23.385Z,37.35
2019-02-18T02:49:55.390Z,37.35
2019-02-18T02:50:27.563Z,37.35
2019-02-18T02:50:59.590Z,37.45
2019-02-18T02:51:32.006Z,37.45
2019-02-18T02:52:04.002Z,37.74
2019-02-18T02:52:36.123Z,37.74
2019-02-18T02:53:08.186Z,37.16
2019-02-18T02:53:40.260Z,37.74
2019-02-18T02:54:12.432Z,37.74
2019-02-18T02:54:44.715Z,37.45
2019-02-18T02:55:16.768Z,37.35
2019-02-18T02:55:48.894Z,37.54
2019-02-18T02:56:20.918Z,37.64
2019-02-18T02:56:53.005Z,37.35
2019-02-18T02:57:25.131Z,37.26
2019-02-18T02:57:57.143Z,37.35
2019-02-18T02:58:29.174Z,37.83
2019-02-18T02:59:01.147Z,37.74
2019-02-18T02:59:33.277Z,37.64
2019-02-18T03:00:06.197Z,37.45
2019-02-18T03:00:38.277Z,37.74
2019-02-18T03:01:10.284Z,37.45
2019-02-18T03:01:42.256Z,37.35
2019-02-18T03:02:14.282Z,37.16
2019-02-18T03:02:46.266Z,37.54
2019-02-18T03:03:18.283Z,37.35
2019-02-18T03:03:50.263Z,37.26
2019-02-18T03:04:22.258Z,37.74
2019-02-18T03:04:54.220Z,37.45
2019-02-18T03:05:26.293Z,37.64
2019-02-18T03:05:58.262Z,37.45
2019-02-18T03:06:30.354Z,37.45
2019-02-18T03:07:02.401Z,37.45
2019-02-18T03:07:34.376Z,37.45
2019-02-18T03:08:06.364Z,37.45
2019-02-18T03:08:51.893Z,37.54
2019-02-18T03:09:24.120Z,37.45
2019-02-18T03:09:56.418Z,37.54
2019-02-18T03:10:28.519Z,37.54
2019-02-18T03:11:00.689Z,37.54
2019-02-18T03:11:32.897Z,37.54
2019-02-18T03:12:05.091Z,37.54
2019-02-18T03:12:37.331Z,37.54
2019-02-18T03:13:09.482Z,37.26
2019-02-18T03:13:41.603Z,37.45
2019-02-18T03:14:13.692Z,37.45
2019-02-18T03:14:45.728Z,37.54
2019-02-18T03:15:17.844Z,37.54
2019-02-18T03:15:49.867Z,37.54
2019-02-18T03:16:22.029Z,37.54
2019-02-18T03:16:54.083Z,37.54
2019-02-18T03:17:26.053Z,37.26
2019-02-18T03:17:58.038Z,37.54
2019-02-18T03:18:30.011Z,37.54
2019-02-18T03:19:01.979Z,37.54
2019-02-18T03:19:33.955Z,37.74
2019-02-18T03:20:06.706Z,37.26
2019-02-18T03:20:38.688Z,37.16
2019-02-18T03:21:10.673Z,37.64
2019-02-18T03:21:42.649Z,37.45
2019-02-18T03:22:14.639Z,37.74
2019-02-18T03:22:46.669Z,37.16
2019-02-18T03:23:18.648Z,37.64
2019-02-18T03:23:50.640Z,37.64
2019-02-18T03:24:22.644Z,37.54
2019-02-18T03:24:54.603Z,37.45
2019-02-18T03:25:26.571Z,37.64
2019-02-18T03:25:58.567Z,37.45
2019-02-18T03:26:30.583Z,37.54
2019-02-18T03:27:02.577Z,37.64
2019-02-18T03:27:34.542Z,37.54
2019-02-18T03:28:06.526Z,37.35
2019-02-18T03:28:38.491Z,37.45
2019-02-18T03:29:10.489Z,37.35
2019-02-18T03:29:42.610Z,37.64
2019-02-18T03:30:14.596Z,37.45
2019-02-18T03:30:46.624Z,37.45
2019-02-18T03:31:18.847Z,37.35
2019-02-18T03:31:50.857Z,37.45
2019-02-18T03:32:22.854Z,37.64
2019-02-18T03:32:54.878Z,37.45
2019-02-18T03:33:26.894Z,37.45
2019-02-18T03:33:58.920Z,37.54
2019-02-18T03:34:30.916Z,37.54
2019-02-18T03:35:03.410Z,37.45
2019-02-18T03:35:35.409Z,37.45
2019-02-18T03:36:07.398Z,37.83
2019-02-18T03:36:39.392Z,37.45
2019-02-18T03:37:11.370Z,37.45
2019-02-18T03:37:43.346Z,37.64
2019-02-18T03:38:15.330Z,37.74
2019-02-18T03:38:47.308Z,37.64
2019-02-18T03:39:19.274Z,37.54
2019-02-18T03:39:51.252Z,37.45
2019-02-18T03:40:23.234Z,37.35
2019-02-18T03:41:03.789Z,37.45
2019-02-18T03:41:35.828Z,37.54
2019-02-18T03:42:07.875Z,37.45
2019-02-18T03:42:39.960Z,37.64
2019-02-18T03:43:12.400Z,37.35
2019-02-18T03:43:44.537Z,37.54
2019-02-18T03:44:16.566Z,37.35
2019-02-18T03:44:48.631Z,37.43
2019-02-18T03:45:20.665Z,37.35
2019-02-18T03:45:52.725Z,37.35
2019-02-18T03:46:24.742Z,37.26
2019-02-18T03:46:56.733Z,37.35
2019-02-18T03:47:28.839Z,37.54
2019-02-18T03:48:00.877Z,37.35
2019-02-18T03:48:32.920Z,37.64
2019-02-18T03:49:05.119Z,37.35
2019-02-18T03:49:37.152Z,37.26
2019-02-18T03:50:09.326Z,37.45
2019-02-18T03:50:41.441Z,37.45
2019-02-18T03:51:13.623Z,37.26
2019-02-18T03:51:45.625Z,37.45
2019-02-18T03:52:17.709Z,37.16
2019-02-18T03:52:49.747Z,37.35
2019-02-18T03:53:21.837Z,37.35
2019-02-18T03:53:53.982Z,37.16
2019-02-18T03:54:26.120Z,37.34
2019-02-18T03:54:58.395Z,37.26
2019-02-18T03:55:30.506Z,37.26
2019-02-18T03:56:02.657Z,37.16
2019-02-18T03:56:34.741Z,37.26
2019-02-18T03:57:06.744Z,37.35
2019-02-18T03:57:38.728Z,37.26
2019-02-18T03:58:10.738Z,37.16
2019-02-18T03:58:42.731Z,37.45
2019-02-18T03:59:14.786Z,37.26
2019-02-18T03:59:46.764Z,37.26
2019-02-18T04:00:18.747Z,37.26
2019-02-18T04:00:50.746Z,37.26
2019-02-18T04:01:22.802Z,37.26
2019-02-18T04:01:54.813Z,37.45
2019-02-18T04:02:26.864Z,37.35
2019-02-18T04:02:58.858Z,37.35
2019-02-18T04:03:30.906Z,37.35
2019-02-18T04:04:02.902Z,37.16
2019-02-18T04:04:35.041Z,37.35
2019-02-18T04:05:07.052Z,37.26
2019-02-18T04:05:39.031Z,37.16
2019-02-18T04:06:11.034Z,37.26
2019-02-18T04:06:43.019Z,37.26
2019-02-18T04:07:15.012Z,37.26
2019-02-18T04:07:47.000Z,37.45
2019-02-18T04:08:19.020Z,37.26
2019-02-18T04:08:51.106Z,37.35
2019-02-18T04:09:23.161Z,37.06
2019-02-18T04:09:55.149Z,37.26
2019-02-18T04:10:27.274Z,37.35
2019-02-18T04:10:59.258Z,37.26
2019-02-18T04:11:31.394Z,37.54
2019-02-18T04:12:03.394Z,37.16
2019-02-18T04:12:35.401Z,37.35
2019-02-18T04:13:07.387Z,37.26
2019-02-18T04:13:39.365Z,37.35
2019-02-18T04:14:11.340Z,37.35
2019-02-18T04:14:43.356Z,37.16
2019-02-18T04:15:15.383Z,37.35
2019-02-18T04:15:47.365Z,37.26
2019-02-18T04:16:19.328Z,36.97
2019-02-18T04:16:51.345Z,37.26
2019-02-18T04:17:23.337Z,37.54
2019-02-18T04:17:55.307Z,37.45
2019-02-18T04:18:27.276Z,37.45
2019-02-18T04:18:59.282Z,36.97
2019-02-18T04:19:31.297Z,36.97
2019-02-18T04:20:03.281Z,37.16
2019-02-18T04:20:35.325Z,37.06
2019-02-18T04:21:07.318Z,37.16
2019-02-18T04:21:39.301Z,37.45
2019-02-18T04:22:11.261Z,36.87
2019-02-18T04:22:43.253Z,37.35
2019-02-18T04:23:15.273Z,37.35
2019-02-18T04:23:47.275Z,37.45
2019-02-18T04:24:19.299Z,37.16
2019-02-18T04:24:51.269Z,37.06
2019-02-18T04:25:23.243Z,37.16
2019-02-18T04:25:55.556Z,36.97
2019-02-18T04:26:28.065Z,37.16
2019-02-18T04:27:00.340Z,37.16
2019-02-18T04:27:32.308Z,37.16
2019-02-18T04:28:04.303Z,37.16
2019-02-18T04:28:36.403Z,37.06
2019-02-18T04:29:08.432Z,37.16
2019-02-18T04:29:40.412Z,37.06
2019-02-18T04:30:14.238Z,37.06
2019-02-18T04:30:46.451Z,37.06
2019-02-18T04:31:18.566Z,37.16
2019-02-18T04:31:50.618Z,37.26
2019-02-18T04:32:22.801Z,37.16
2019-02-18T04:32:55.746Z,37.06
2019-02-18T04:33:27.732Z,37.26
2019-02-18T04:33:59.708Z,37.26
2019-02-18T04:34:31.688Z,37.26
2019-02-18T04:35:03.657Z,37.16
2019-02-18T04:35:35.634Z,37.06
2019-02-18T04:36:07.870Z,37.16
2019-02-18T04:36:39.874Z,37.16
2019-02-18T04:37:11.852Z,36.97
2019-02-18T04:37:43.931Z,36.97
2019-02-18T04:38:15.908Z,37.06
2019-02-18T04:38:54.904Z,37.06
2019-02-18T04:39:27.084Z,37.06
2019-02-18T04:39:59.073Z,37.06
2019-02-18T04:40:31.247Z,36.97
2019-02-18T04:41:03.230Z,37.06
2019-02-18T04:41:35.266Z,36.87
2019-02-18T04:42:07.262Z,36.97
2019-02-18T04:42:39.249Z,36.97
2019-02-18T04:43:11.225Z,37.06
2019-02-18T04:43:43.207Z,36.77
2019-02-18T04:44:15.173Z,37.06
2019-02-18T04:44:47.143Z,36.97
2019-02-18T04:45:19.127Z,37.06
2019-02-18T04:45:51.116Z,37.06
2019-02-18T04:46:23.098Z,36.97
2019-02-18T04:46:55.071Z,36.97
2019-02-18T04:47:29.844Z,37.16
2019-02-18T04:48:01.899Z,36.87
2019-02-18T04:48:33.873Z,37.06
2019-02-18T04:49:05.870Z,37.06
2019-02-18T04:49:37.872Z,37.06
2019-02-18T04:50:09.853Z,36.77
2019-02-18T04:50:41.819Z,36.97
2019-02-18T04:51:13.793Z,37.06
2019-02-18T04:51:45.771Z,37.06
2019-02-18T04:52:17.794Z,37.06
2019-02-18T04:52:49.770Z,37.06
2019-02-18T04:53:21.762Z,37.06
2019-02-18T04:53:53.732Z,37.06
2019-02-18T04:54:25.714Z,37.35
2019-02-18T04:54:57.708Z,36.77
2019-02-18T04:55:29.677Z,37.06
2019-02-18T04:56:01.631Z,37.16
2019-02-18T04:56:33.630Z,37.06
2019-02-18T04:57:05.626Z,37.06
2019-02-18T04:57:37.595Z,37.06
2019-02-18T04:58:09.627Z,37.35
2019-02-18T04:58:41.604Z,37.16
2019-02-18T04:59:13.576Z,37.26
2019-02-18T04:59:45.612Z,36.77
2019-02-18T05:00:17.657Z,37.35
2019-02-18T05:00:49.646Z,37.35
2019-02-18T05:01:21.622Z,37.35
2019-02-18T05:01:53.601Z,37.35
2019-02-18T05:02:25.571Z,37.35
2019-02-18T05:02:57.551Z,37.26
2019-02-18T05:03:29.522Z,37.26
2019-02-18T05:04:01.488Z,36.87
2019-02-18T05:04:33.488Z,37.26
2019-02-18T05:05:05.457Z,37.26
2019-02-18T05:05:37.437Z,37.35
2019-02-18T05:06:09.419Z,37.26
2019-02-18T05:06:41.418Z,36.87
2019-02-18T05:07:13.406Z,37.35
2019-02-18T05:07:45.393Z,36.87
2019-02-18T05:08:17.547Z,37.26
2019-02-18T05:08:49.826Z,37.16
2019-02-18T05:09:22.021Z,36.87
2019-02-18T05:09:54.037Z,36.97
2019-02-18T05:10:26.061Z,36.97
2019-02-18T05:10:58.050Z,36.87
2019-02-18T05:11:30.104Z,37.06
2019-02-18T05:12:02.167Z,36.87
2019-02-18T05:12:34.224Z,37.06
2019-02-18T05:13:06.301Z,37.06
2019-02-18T05:13:38.332Z,36.97
2019-02-18T05:14:10.479Z,37.06
2019-02-18T05:14:42.528Z,37.06
2019-02-18T05:15:14.547Z,36.97
2019-02-18T05:15:46.574Z,37.06
2019-02-18T05:16:18.868Z,37.06
2019-02-18T05:16:51.002Z,37.06
2019-02-18T05:17:23.009Z,37.06
2019-02-18T05:17:55.103Z,37.06
2019-02-18T05:18:27.201Z,36.87
2019-02-18T05:18:59.363Z,37.06
2019-02-18T05:19:31.353Z,37.06
2019-02-18T05:20:03.363Z,37.06
2019-02-18T05:20:35.421Z,36.97
2019-02-18T05:21:07.529Z,36.97
2019-02-18T05:21:39.537Z,37.06
2019-02-18T05:22:11.650Z,37.06
2019-02-18T05:22:43.732Z,37.06
2019-02-18T05:23:15.811Z,36.97
2019-02-18T05:23:47.781Z,36.97
2019-02-18T05:24:19.841Z,36.97
2019-02-18T05:24:51.851Z,36.68
2019-02-18T05:25:23.856Z,37.06
2019-02-18T05:25:55.929Z,36.97
2019-02-18T05:26:27.955Z,36.97
2019-02-18T05:26:59.924Z,36.97
2019-02-18T05:27:34.036Z,37.06
2019-02-18T05:28:06.181Z,37.06
2019-02-18T05:28:39.187Z,36.97
2019-02-18T05:29:11.402Z,36.68
2019-02-18T05:29:43.538Z,36.97
2019-02-18T05:30:15.574Z,36.87
2019-02-18T05:30:48.291Z,36.77
2019-02-18T05:31:20.342Z,37.16
2019-02-18T05:31:52.316Z,36.97
2019-02-18T05:32:24.310Z,36.97
2019-02-18T05:32:56.294Z,36.68
2019-02-18T05:33:28.278Z,37.06
2019-02-18T05:34:00.285Z,37.06
2019-02-18T05:34:32.313Z,37.16
2019-02-18T05:35:04.314Z,37.14
2019-02-18T05:35:36.299Z,37.06
2019-02-18T05:36:08.284Z,37.06
2019-02-18T05:36:40.252Z,37.06
2019-02-18T05:37:12.324Z,36.87
2019-02-18T05:37:44.312Z,37.06
2019-02-18T05:38:16.372Z,36.87
2019-02-18T05:38:48.358Z,36.87
2019-02-18T05:39:20.361Z,36.97
2019-02-18T05:39:52.349Z,36.87
2019-02-18T05:40:27.239Z,36.87
2019-02-18T05:40:59.447Z,36.87
2019-02-18T05:41:31.873Z,36.49
2019-02-18T05:42:03.892Z,36.77
2019-02-18T05:42:35.983Z,36.87
2019-02-18T05:43:08.795Z,36.77
2019-02-18T05:43:40.795Z,36.87
2019-02-18T05:44:12.870Z,36.49
2019-02-18T05:44:44.837Z,36.87
2019-02-18T05:45:16.821Z,36.87
2019-02-18T05:45:48.894Z,36.87
2019-02-18T05:46:20.900Z,36.87
2019-02-18T05:46:52.924Z,36.87
2019-02-18T05:47:24.907Z,36.87
2019-02-18T05:47:56.911Z,36.87
2019-02-18T05:48:28.894Z,36.97
2019-02-18T05:49:01.102Z,36.87
2019-02-18T05:49:33.193Z,36.87
2019-02-18T05:50:05.252Z,36.87
2019-02-18T05:50:37.407Z,36.68
2019-02-18T05:51:09.390Z,36.77
2019-02-18T05:51:41.406Z,36.77
2019-02-18T05:52:13.407Z,36.87
2019-02-18T05:52:45.410Z,36.77
2019-02-18T05:53:17.390Z,36.87
2019-02-18T05:53:49.377Z,36.77
2019-02-18T05:54:21.366Z,36.77
2019-02-18T05:54:53.383Z,36.49
2019-02-18T05:55:25.410Z,36.87
2019-02-18T05:55:57.431Z,36.97
2019-02-18T05:56:29.441Z,36.87
2019-02-18T05:57:01.458Z,36.87
2019-02-18T05:57:33.459Z,36.77
2019-02-18T05:58:05.446Z,37.06
2019-02-18T05:58:37.437Z,36.77
2019-02-18T05:59:09.402Z,36.68
2019-02-18T05:59:41.395Z,36.77
2019-02-18T06:00:13.381Z,36.87
2019-02-18T06:00:45.369Z,36.68
2019-02-18T06:01:17.553Z,36.77
2019-02-18T06:01:49.568Z,36.68
2019-02-18T06:02:21.633Z,36.87
2019-02-18T06:02:53.636Z,36.97
2019-02-18T06:03:25.778Z,36.77
2019-02-18T06:04:00.606Z,36.68
2019-02-18T06:04:33.370Z,36.77
2019-02-18T06:05:05.988Z,36.77
2019-02-18T06:05:37.986Z,36.97
2019-02-18T06:06:09.970Z,36.77
2019-02-18T06:06:42.128Z,36.77
2019-02-18T06:07:14.125Z,36.68
2019-02-18T06:07:46.109Z,36.68
2019-02-18T06:08:18.121Z,36.68
2019-02-18T06:08:50.163Z,36.77
2019-02-18T06:09:30.476Z,36.66
2019-02-18T06:10:02.694Z,36.77
2019-02-18T06:10:34.758Z,36.87
2019-02-18T06:11:06.864Z,36.77
2019-02-18T06:11:38.946Z,36.87
2019-02-18T06:12:11.165Z,36.77
2019-02-18T06:12:43.423Z,36.77
2019-02-18T06:13:15.718Z,36.97
2019-02-18T06:13:47.910Z,36.29
2019-02-18T06:14:19.972Z,36.29
2019-02-18T06:14:51.951Z,36.68
2019-02-18T06:15:23.999Z,36.85
2019-02-18T06:15:56.068Z,36.97
2019-02-18T06:16:28.071Z,36.97
2019-02-18T06:17:02.594Z,36.97
2019-02-18T06:17:34.822Z,36.97
2019-02-18T06:18:06.806Z,36.97
2019-02-18T06:18:38.823Z,36.97
2019-02-18T06:19:10.810Z,36.1
2019-02-18T06:19:42.854Z,36.87
2019-02-18T06:20:14.917Z,36.87
2019-02-18T06:20:47.060Z,36.77
2019-02-18T06:21:19.068Z,36.87
2019-02-18T06:21:51.042Z,36.68
2019-02-18T06:22:23.036Z,36.68
2019-02-18T06:22:55.052Z,36.68
2019-02-18T06:23:27.037Z,36.77
2019-02-18T06:23:59.007Z,36.87
2019-02-18T06:24:30.995Z,36.87
2019-02-18T06:25:03.026Z,36.19
2019-02-18T06:25:35.035Z,36.29
2019-02-18T06:26:07.044Z,36.77
2019-02-18T06:26:39.033Z,36.77
2019-02-18T06:27:11.040Z,36.68
2019-02-18T06:27:43.035Z,36.87
2019-02-18T06:28:15.042Z,36.97
2019-02-18T06:28:47.040Z,36.77
2019-02-18T06:29:19.021Z,36.77
2019-02-18T06:29:51.002Z,36.77
2019-02-18T06:30:22.990Z,36.68
2019-02-18T06:30:55.508Z,36.68
2019-02-18T06:31:27.503Z,36.77
2019-02-18T06:31:59.478Z,36.87
2019-02-18T06:32:31.455Z,36.77
2019-02-18T06:33:03.470Z,36.97
2019-02-18T06:33:36.305Z,36.87
2019-02-18T06:34:08.803Z,36.77
2019-02-18T06:34:40.791Z,36.68
2019-02-18T06:35:12.785Z,36.77
2019-02-18T06:35:44.840Z,36.77
2019-02-18T06:36:16.856Z,36.87
2019-02-18T06:36:48.862Z,36.77
2019-02-18T06:37:20.880Z,36.77
2019-02-18T06:37:52.874Z,36.77
2019-02-18T06:38:24.895Z,36.49
2019-02-18T06:38:58.301Z,36.68
2019-02-18T06:39:41.975Z,36.77
2019-02-18T06:40:14.084Z,36.29
2019-02-18T06:40:46.094Z,36.77
2019-02-18T06:41:18.077Z,36.68
2019-02-18T06:41:50.065Z,36.77
2019-02-18T06:42:22.045Z,36.68
2019-02-18T06:42:54.400Z,36.68
2019-02-18T06:43:26.466Z,36.68
2019-02-18T06:43:58.454Z,36.39
2019-02-18T06:44:30.453Z,36.49
2019-02-18T06:45:02.486Z,36.68
2019-02-18T06:45:34.480Z,36.77
2019-02-18T06:46:06.477Z,36.39
2019-02-18T06:46:38.463Z,36.49
2019-02-18T06:47:10.463Z,36.39
2019-02-18T06:47:42.443Z,36.77
2019-02-18T06:48:15.040Z,36.77
2019-02-18T06:48:47.032Z,36.49
2019-02-18T06:49:19.015Z,36.49
2019-02-18T06:49:51.003Z,36.77
2019-02-18T06:50:22.990Z,36.29
2019-02-18T06:50:55.018Z,36.58
2019-02-18T06:51:27.131Z,36.58
2019-02-18T06:51:59.136Z,36.39
2019-02-18T06:52:33.121Z,36.58
2019-02-18T06:53:05.120Z,36.39
2019-02-18T06:53:37.137Z,36.49